Time,TemperatureF,DewpointF,PressureIn,WindDirection,WindDirectionDegrees,WindSpeedMPH,WindSpeedGustMPH,Humidity,HourlyPrecipIn,Conditions,Clouds,dailyrainin,SoftwareType,DateUTC
2013-01-21 00:00:00,20.1,3.5,30.24,SW,225,6.0,0.0,48,0.00,RA,RA,0.00,WeatherDisplay:10.37,2013-01-21 05:00:00,
2013-01-21 00:03:00,20.1,3.5,30.24,SW,225,2.4,12.8,48,0.00,RA,,0.00,WeatherDisplay:10.37,2013-01-21 05:03:00,
2013-01-21 00:08:00,20.1,3.5,30.24,SW,225,5.7,5.8,48,0.00,RA,,0.00,WeatherDisplay:10.37,2013-01-21 05:08:00,
2013-01-21 00:13:00,20.1,3.5,30.25,SW,225,3.3,6.9,48,0.00,CLR,,0.00,WeatherDisplay:10.37,2013-01-21 05:13:00,
2013-01-21 00:18:00,20.1,3.5,30.24,SW,225,4.7,8.1,48,0.00,CLR,,0.00,WeatherDisplay:10.37,2013-01-21 05:18:00,
2013-01-21 00:23:00,20.1,3.5,30.25,SW,225,6.4,6.9,48,0.00,CLR,,0.00,WeatherDisplay:10.37,2013-01-21 05:23:00,
2013-01-21 00:28:00,19.9,3.4,30.25,SW,225,7.4,12.7,48,0.00,CLR,,0.00,WeatherDisplay:10.37,2013-01-21 05:28:00,
2013-01-21 00:33:00,19.9,3.4,30.24,SW,225,4.0,7.4,48,0.00,CLR,,0.00,WeatherDisplay:10.37,2013-01-21 05:33:00,
2013-01-21 00:38:00,19.9,3.8,30.24,SW,225,2.4,8.1,49,0.00,CLR,,0.00,WeatherDisplay:10.37,2013-01-21 05:38:00,
2013-01-21 00:43:00,19.9,3.8,30.24,SW,225,4.7,6.9,49,0.00,CLR,,0.00,WeatherDisplay:10.37,2013-01-21 05:43:00,
2013-01-21 00:48:00,19.9,3.8,30.25,SW,225,5.7,9.2,49,0.00,CLR,,0.00,WeatherDisplay:10.37,2013-01-21 05:48:00,
2013-01-21 00:53:00,19.9,3.8,30.25,SW,225,7.4,10.4,49,0.00,CLR,,0.00,WeatherDisplay:10.37,2013-01-21 05:53:00,
2013-01-21 00:58:00,19.9,4.3,30.24,SW,225,4.7,10.4,50,0.00,CLR,,0.00,WeatherDisplay:10.37,2013-01-21 05:58:00,
2013-01-21 01:03:00,19.9,4.3,30.24,SW,225,7.4,9.2,50,0.00,CLR,,0.00,WeatherDisplay:10.37,2013-01-21 06:03:00,
2013-01-21 01:08:00,19.8,3.7,30.23,SW,225,7.4,9.2,49,0.00,CLR,,0.00,WeatherDisplay:10.37,2013-01-21 06:08:00,
2013-01-21 01:13:00,19.8,3.7,30.22,SW,225,8.1,12.8,49,0.00,CLR,,0.00,WeatherDisplay:10.37,2013-01-21 06:13:00,
2013-01-21 01:18:00,19.6,3.5,30.22,SW,225,5.7,15.0,49,0.00,CLR,,0.00,WeatherDisplay:10.37,2013-01-21 06:18:00,
2013-01-21 01:23:00,19.6,3.0,30.21,SW,225,4.7,6.9,48,0.00,CLR,,0.00,WeatherDisplay:10.37,2013-01-21 06:23:00,
2013-01-21 01:28:00,19.6,3.5,30.21,SW,225,8.1,11.5,49,0.00,CLR,,0.00,WeatherDisplay:10.37,2013-01-21 06:28:00,
2013-01-21 01:33:00,19.6,3.5,30.20,SW,225,4.7,9.2,49,0.00,CLR,,0.00,WeatherDisplay:10.37,2013-01-21 06:33:00,
2013-01-21 01:38:00,19.8,4.1,30.20,SW,225,7.4,9.2,50,0.00,CLR,,0.00,WeatherDisplay:10.37,2013-01-21 06:38:00,
2013-01-21 01:43:00,19.6,3.9,30.19,SW,225,3.3,10.4,50,0.00,CLR,,0.00,WeatherDisplay:10.37,2013-01-21 06:43:00,
2013-01-21 01:48:00,19.6,3.9,30.19,SW,225,6.4,12.7,50,0.00,CLR,,0.00,WeatherDisplay:10.37,2013-01-21 06:48:00,
2013-01-21 01:53:00,19.6,3.9,30.19,SW,225,8.8,13.8,50,0.00,CLR,,0.00,WeatherDisplay:10.37,2013-01-21 06:53:00,
2013-01-21 01:58:00,19.6,3.9,30.19,SW,225,6.4,11.4,50,0.00,CLR,,0.00,WeatherDisplay:10.37,2013-01-21 06:58:00,
2013-01-21 02:03:00,19.6,3.9,30.19,SW,225,4.7,10.4,50,0.00,CLR,,0.00,WeatherDisplay:10.37,2013-01-21 07:03:00,
2013-01-21 02:08:00,19.6,4.4,30.18,SW,225,9.7,12.7,51,0.00,CLR,,0.00,WeatherDisplay:10.37,2013-01-21 07:08:00,
2013-01-21 02:13:00,19.4,4.6,30.18,SW,225,8.1,9.2,52,0.00,CLR,,0.00,WeatherDisplay:10.37,2013-01-21 07:13:00,
2013-01-21 02:18:00,19.4,5.0,30.18,SW,225,8.1,13.8,53,0.00,CLR,,0.00,WeatherDisplay:10.37,2013-01-21 07:18:00,
2013-01-21 02:23:00,19.2,3.6,30.18,SW,225,7.4,12.7,50,0.00,CLR,,0.00,WeatherDisplay:10.37,2013-01-21 07:23:00,
2013-01-21 02:28:00,19.2,4.0,30.18,SW,225,10.4,11.5,51,0.00,CLR,,0.00,WeatherDisplay:10.37,2013-01-21 07:28:00,
2013-01-21 02:34:00,19.0,4.3,30.18,SW,225,4.0,12.7,52,0.00,CLR,,0.00,WeatherDisplay:10.37,2013-01-21 07:34:00,
2013-01-21 02:39:00,19.0,3.9,30.18,SW,225,6.4,12.7,51,0.00,CLR,,0.00,WeatherDisplay:10.37,2013-01-21 07:39:00,
2013-01-21 02:44:00,19.0,3.9,30.18,SW,225,4.0,9.2,51,0.00,CLR,,0.00,WeatherDisplay:10.37,2013-01-21 07:44:00,
2013-01-21 02:49:00,19.0,3.9,30.18,SW,225,5.7,11.5,51,0.00,CLR,,0.00,WeatherDisplay:10.37,2013-01-21 07:49:00,
2013-01-21 02:54:00,19.0,3.4,30.17,SW,225,4.7,6.9,50,0.00,CLR,,0.00,WeatherDisplay:10.37,2013-01-21 07:54:00,
2013-01-21 02:59:00,19.0,3.0,30.17,SW,225,12.8,12.8,49,0.00,CLR,,0.00,WeatherDisplay:10.37,2013-01-21 07:59:00,
2013-01-21 03:04:00,18.9,2.8,30.17,SW,225,8.1,12.7,49,0.00,CLR,,0.00,WeatherDisplay:10.37,2013-01-21 08:04:00,
2013-01-21 03:09:00,18.9,2.4,30.17,South,180,4.7,8.1,48,0.00,CLR,,0.00,WeatherDisplay:10.37,2013-01-21 08:09:00,
2013-01-21 03:14:00,18.9,2.8,30.17,South,180,7.4,12.7,49,0.00,CLR,,0.00,WeatherDisplay:10.37,2013-01-21 08:14:00,
2013-01-21 03:19:00,18.7,2.2,30.17,SSW,202,9.7,16.1,48,0.00,CLR,,0.00,WeatherDisplay:10.37,2013-01-21 08:19:00,
2013-01-21 03:24:00,18.5,1.6,30.16,SSW,202,7.4,15.0,47,0.00,CLR,,0.00,WeatherDisplay:10.37,2013-01-21 08:24:00,
2013-01-21 03:29:00,18.5,1.1,30.16,SSW,202,5.7,12.7,46,0.00,CLR,,0.00,WeatherDisplay:10.37,2013-01-21 08:29:00,
2013-01-21 03:34:00,18.5,0.7,30.16,SSW,202,5.7,6.9,45,0.00,CLR,,0.00,WeatherDisplay:10.37,2013-01-21 08:34:00,
2013-01-21 03:39:00,18.5,0.7,30.16,SSW,202,10.4,15.0,45,0.00,CLR,,0.00,WeatherDisplay:10.37,2013-01-21 08:39:00,
2013-01-21 03:44:00,18.3,0.5,30.15,SSW,202,8.1,12.7,45,0.00,CLR,,0.00,WeatherDisplay:10.37,2013-01-21 08:44:00,
2013-01-21 03:49:00,18.5,1.1,30.15,SSW,202,8.8,14.5,46,0.00,CLR,,0.00,WeatherDisplay:10.37,2013-01-21 08:49:00,
2013-01-21 03:54:00,18.5,1.1,30.15,SSW,202,6.4,9.2,46,0.00,CLR,,0.00,WeatherDisplay:10.37,2013-01-21 08:54:00,
2013-01-21 03:59:00,18.5,1.1,30.15,SSW,202,4.0,9.2,46,0.00,CLR,,0.00,WeatherDisplay:10.37,2013-01-21 08:59:00,
2013-01-21 04:04:00,18.5,1.1,30.14,SSW,202,8.8,13.8,46,0.00,CLR,,0.00,WeatherDisplay:10.37,2013-01-21 09:04:00,
2013-01-21 04:09:00,18.5,1.1,30.14,SSW,202,8.1,12.7,46,0.00,CLR,,0.00,WeatherDisplay:10.37,2013-01-21 09:09:00,
2013-01-21 04:14:00,18.5,1.6,30.13,SSW,202,7.4,12.7,47,0.00,CLR,,0.00,WeatherDisplay:10.37,2013-01-21 09:14:00,
2013-01-21 04:19:00,18.3,1.9,30.14,SSW,202,6.4,12.7,48,0.00,CLR,,0.00,WeatherDisplay:10.37,2013-01-21 09:19:00,
2013-01-21 04:24:00,18.3,2.3,30.14,SSW,202,8.1,13.8,49,0.00,CLR,,0.00,WeatherDisplay:10.37,2013-01-21 09:24:00,
2013-01-21 04:29:00,18.3,2.8,30.13,SSW,202,7.4,7.4,50,0.00,CLR,,0.00,WeatherDisplay:10.37,2013-01-21 09:29:00,
2013-01-21 04:34:00,18.3,2.3,30.13,SSW,202,6.4,12.7,49,0.00,CLR,,0.00,WeatherDisplay:10.37,2013-01-21 09:34:00,
2013-01-21 04:39:00,18.1,2.2,30.13,SSW,202,1.7,6.9,49,0.00,CLR,,0.00,WeatherDisplay:10.37,2013-01-21 09:39:00,
2013-01-21 04:44:00,18.1,2.2,30.13,SSW,202,10.4,15.0,49,0.00,CLR,,0.00,WeatherDisplay:10.37,2013-01-21 09:44:00,
2013-01-21 04:49:00,18.1,2.6,30.13,SSW,202,8.8,13.8,50,0.00,CLR,,0.00,WeatherDisplay:10.37,2013-01-21 09:49:00,
2013-01-21 04:54:00,18.0,2.9,30.12,SSW,202,4.7,8.1,51,0.00,CLR,,0.00,WeatherDisplay:10.37,2013-01-21 09:54:00,
2013-01-21 04:59:00,18.0,2.9,30.12,SSW,202,14.5,17.3,51,0.00,CLR,,0.00,WeatherDisplay:10.37,2013-01-21 09:59:00,
2013-01-21 05:04:00,18.0,2.9,30.12,SSW,202,7.4,15.0,51,0.00,CLR,,0.00,WeatherDisplay:10.37,2013-01-21 10:04:00,
2013-01-21 05:09:00,17.8,2.7,30.12,SSW,202,12.1,13.8,51,0.00,CLR,,0.00,WeatherDisplay:10.37,2013-01-21 10:09:00,
2013-01-21 05:14:00,17.6,2.5,30.12,SSW,202,8.8,16.1,51,0.00,CLR,,0.00,WeatherDisplay:10.37,2013-01-21 10:14:00,
2013-01-21 05:19:00,17.6,2.5,30.12,SSW,202,8.8,13.8,51,0.00,CLR,,0.00,WeatherDisplay:10.37,2013-01-21 10:19:00,
2013-01-21 05:24:00,17.6,2.9,30.12,SSW,202,4.7,15.0,52,0.00,CLR,,0.00,WeatherDisplay:10.37,2013-01-21 10:24:00,
2013-01-21 05:29:00,17.6,3.3,30.12,SSW,202,7.4,10.4,53,0.00,CLR,,0.00,WeatherDisplay:10.37,2013-01-21 10:29:00,
2013-01-21 05:34:00,17.6,3.3,30.12,SSW,202,11.4,12.7,53,0.00,CLR,,0.00,WeatherDisplay:10.37,2013-01-21 10:34:00,
2013-01-21 05:39:00,17.4,4.0,30.12,SSW,202,5.7,17.3,55,0.00,CLR,,0.00,WeatherDisplay:10.37,2013-01-21 10:39:00,
2013-01-21 05:44:00,17.1,5.2,30.11,SSW,202,11.4,19.6,59,0.00,CLR,,0.00,WeatherDisplay:10.37,2013-01-21 10:44:00,
2013-01-21 05:49:00,16.7,6.6,30.12,SSW,202,8.1,12.7,64,0.00,CLR,,0.00,WeatherDisplay:10.37,2013-01-21 10:49:00,
2013-01-21 05:54:00,16.5,7.1,30.11,SSW,202,5.7,10.4,66,0.00,CLR,,0.00,WeatherDisplay:10.37,2013-01-21 10:54:00,
2013-01-21 05:59:00,16.5,7.8,30.11,SSW,202,4.7,10.4,68,0.00,CLR,,0.00,WeatherDisplay:10.37,2013-01-21 10:59:00,
2013-01-21 06:04:00,16.7,7.6,30.11,SSW,202,8.1,16.1,67,0.00,CLR,,0.00,WeatherDisplay:10.37,2013-01-21 11:04:00,
2013-01-21 06:09:00,16.7,7.3,30.10,SSW,202,8.8,12.7,66,0.00,CLR,,0.00,WeatherDisplay:10.37,2013-01-21 11:09:00,
2013-01-21 06:14:00,16.5,7.1,30.11,SSW,202,9.7,12.7,66,0.00,CLR,,0.00,WeatherDisplay:10.37,2013-01-21 11:14:00,
2013-01-21 06:19:00,16.7,7.0,30.11,SSW,202,12.8,20.7,65,0.00,CLR,,0.00,WeatherDisplay:10.37,2013-01-21 11:19:00,
2013-01-21 06:24:00,16.9,6.4,30.11,SSW,202,8.8,10.4,63,0.00,CLR,,0.00,WeatherDisplay:10.37,2013-01-21 11:24:00,
2013-01-21 06:29:00,16.9,6.1,30.11,SSW,202,3.3,9.2,62,0.00,CLR,,0.00,WeatherDisplay:10.37,2013-01-21 11:29:00,
2013-01-21 06:34:00,16.9,5.7,30.10,SSW,202,6.4,12.7,61,0.00,CLR,,0.00,WeatherDisplay:10.37,2013-01-21 11:34:00,
2013-01-21 06:39:00,16.7,5.2,30.11,SSW,202,10.4,15.0,60,0.00,CLR,,0.00,WeatherDisplay:10.37,2013-01-21 11:39:00,
2013-01-21 06:44:00,16.5,5.0,30.11,SSW,202,7.4,17.3,60,0.00,CLR,,0.00,WeatherDisplay:10.37,2013-01-21 11:44:00,
2013-01-21 06:49:00,16.2,5.4,30.11,SSW,202,12.8,18.4,62,0.00,CLR,,0.00,WeatherDisplay:10.37,2013-01-21 11:49:00,
2013-01-21 06:54:00,15.8,6.4,30.11,SSW,202,13.8,18.4,66,0.00,CLR,,0.00,WeatherDisplay:10.37,2013-01-21 11:54:00,
2013-01-21 06:59:00,15.8,7.1,30.11,SSW,202,4.7,9.2,68,0.00,CLR,,0.00,WeatherDisplay:10.37,2013-01-21 11:59:00,
2013-01-21 07:04:00,15.8,8.1,30.11,SSW,202,10.4,17.3,71,0.00,CLR,,0.00,WeatherDisplay:10.37,2013-01-21 12:04:00,
2013-01-21 07:09:00,15.8,7.7,30.11,SW,225,15.4,18.4,70,0.00,CLR,,0.00,WeatherDisplay:10.37,2013-01-21 12:09:00,
2013-01-21 07:14:00,15.8,6.8,30.12,SW,225,13.8,19.6,67,0.00,CLR,,0.00,WeatherDisplay:10.37,2013-01-21 12:14:00,
2013-01-21 07:19:00,15.4,6.4,30.12,SW,225,8.8,25.3,67,0.00,CLR,,0.00,WeatherDisplay:10.37,2013-01-21 12:19:00,
2013-01-21 07:24:00,15.4,5.8,30.11,SW,225,7.4,17.3,65,0.00,CLR,,0.00,WeatherDisplay:10.37,2013-01-21 12:24:00,
2013-01-21 07:29:00,15.6,5.2,30.12,SW,225,8.8,17.3,63,0.00,CLR,,0.00,WeatherDisplay:10.37,2013-01-21 12:29:00,
2013-01-21 07:34:00,15.8,3.6,30.12,SW,225,9.7,17.3,58,0.00,CLR,,0.00,WeatherDisplay:10.37,2013-01-21 12:34:00,
2013-01-21 07:39:00,15.8,2.9,30.12,SW,225,10.4,16.1,56,0.00,CLR,,0.00,WeatherDisplay:10.37,2013-01-21 12:39:00,
2013-01-21 07:44:00,15.4,3.3,30.12,SW,225,8.1,17.3,58,0.00,CLR,,0.00,WeatherDisplay:10.37,2013-01-21 12:44:00,
2013-01-21 07:49:00,15.1,4.7,30.12,SW,225,7.4,19.6,63,0.00,CLR,,0.00,WeatherDisplay:10.37,2013-01-21 12:49:00,
2013-01-21 07:54:00,14.7,5.1,30.11,SW,225,8.1,15.0,65,0.00,CLR,,0.00,WeatherDisplay:10.37,2013-01-21 12:54:00,
2013-01-21 07:59:00,39.2,30.9,30.19,SE,135,4.0,16.1,72,0.00,CLR,,0.00,WeatherDisplay:10.37,2013-01-21 12:59:00,
2013-01-21 08:04:00,14.5,5.6,30.12,SW,225,9.7,15.0,67,0.00,CLR,,0.00,WeatherDisplay:10.37,2013-01-21 13:04:00,
2013-01-21 08:09:00,14.5,5.6,30.12,SW,225,13.8,17.3,67,0.00,CLR,,0.00,WeatherDisplay:10.37,2013-01-21 13:09:00,
2013-01-21 08:14:00,14.7,5.4,30.12,SW,225,12.8,21.9,66,0.00,CLR,,0.00,WeatherDisplay:10.37,2013-01-21 13:14:00,
2013-01-21 08:19:00,14.5,4.9,30.12,SW,225,10.4,23.0,65,0.00,CLR,,0.00,WeatherDisplay:10.37,2013-01-21 13:19:00,
2013-01-21 08:24:00,14.5,4.6,30.11,SW,225,14.5,14.5,64,0.00,CLR,,0.00,WeatherDisplay:10.37,2013-01-21 13:24:00,
2013-01-21 08:29:00,14.7,4.0,30.12,SW,225,5.7,13.8,62,0.00,CLR,,0.00,WeatherDisplay:10.37,2013-01-21 13:29:00,
2013-01-21 08:34:00,14.9,2.8,30.12,SW,225,2.4,19.6,58,0.00,CLR,,0.00,WeatherDisplay:10.37,2013-01-21 13:34:00,
2013-01-21 08:39:00,14.9,1.6,30.12,SW,225,6.4,12.7,55,0.00,CLR,,0.00,WeatherDisplay:10.37,2013-01-21 13:39:00,
2013-01-21 08:44:00,14.9,0.8,30.12,SW,225,10.4,17.8,53,0.00,CLR,,0.00,WeatherDisplay:10.37,2013-01-21 13:44:00,
2013-01-21 08:49:00,14.7,-0.2,30.12,SW,225,8.8,15.0,51,0.00,CLR,,0.00,WeatherDisplay:10.37,2013-01-21 13:49:00,
2013-01-21 08:54:00,14.7,-0.2,30.13,SW,225,4.0,9.2,51,0.00,CLR,,0.00,WeatherDisplay:10.37,2013-01-21 13:54:00,
2013-01-21 08:59:00,14.7,-0.2,30.14,SW,225,5.7,20.7,51,0.00,CLR,,0.00,WeatherDisplay:10.37,2013-01-21 13:59:00,
2013-01-21 09:04:00,14.7,0.3,30.13,SW,225,4.7,17.3,52,0.00,CLR,,0.00,WeatherDisplay:10.37,2013-01-21 14:04:00,
2013-01-21 09:09:00,14.7,0.7,30.13,SW,225,8.8,17.3,53,0.00,CLR,,0.00,WeatherDisplay:10.37,2013-01-21 14:09:00,
2013-01-21 09:14:00,14.7,1.1,30.13,SW,225,5.7,16.1,54,0.00,CLR,,0.00,WeatherDisplay:10.37,2013-01-21 14:14:00,
2013-01-21 09:19:00,14.4,1.5,30.14,SW,225,7.4,11.5,56,0.00,CLR,,0.00,WeatherDisplay:10.37,2013-01-21 14:19:00,
2013-01-21 09:24:00,14.4,3.0,30.14,SW,225,9.7,12.7,60,0.00,CLR,,0.00,WeatherDisplay:10.37,2013-01-21 14:24:00,
2013-01-21 09:29:00,14.5,3.2,30.14,SW,225,7.4,11.5,60,0.00,CLR,,0.00,WeatherDisplay:10.37,2013-01-21 14:29:00,
2013-01-21 09:34:00,14.9,2.8,30.14,SW,225,10.4,17.3,58,0.00,CLR,,0.00,WeatherDisplay:10.37,2013-01-21 14:34:00,
2013-01-21 09:39:00,14.7,2.2,30.14,SW,225,15.4,17.3,57,0.00,CLR,,0.00,WeatherDisplay:10.37,2013-01-21 14:39:00,
2013-01-21 09:44:00,14.2,3.5,30.14,SW,225,11.4,19.6,62,0.00,CLR,,0.00,WeatherDisplay:10.37,2013-01-21 14:44:00,
2013-01-21 09:49:00,13.8,4.9,30.14,SW,225,4.7,11.5,67,0.00,CLR,,0.00,WeatherDisplay:10.37,2013-01-21 14:49:00,
2013-01-21 09:54:00,13.8,5.5,30.14,SW,225,13.8,17.3,69,0.00,CLR,,0.00,WeatherDisplay:10.37,2013-01-21 14:54:00,
2013-01-21 09:59:00,13.8,6.1,30.14,SW,225,12.1,16.8,71,0.00,CLR,,0.00,WeatherDisplay:10.37,2013-01-21 14:59:00,
2013-01-21 10:04:00,13.8,6.5,30.14,SW,225,13.8,19.6,72,0.00,CLR,,0.00,WeatherDisplay:10.37,2013-01-21 15:04:00,
2013-01-21 10:09:00,13.6,6.3,30.14,SW,225,12.8,16.1,72,0.00,CLR,,0.00,WeatherDisplay:10.37,2013-01-21 15:09:00,
2013-01-21 10:14:00,14.0,6.0,30.14,SW,225,12.1,16.1,70,0.00,CLR,,0.00,WeatherDisplay:10.37,2013-01-21 15:14:00,
2013-01-21 10:19:00,14.2,5.2,30.14,SW,225,7.4,19.6,67,0.00,CLR,,0.00,WeatherDisplay:10.37,2013-01-21 15:19:00,
2013-01-21 10:24:00,14.2,4.6,30.15,SW,225,8.1,15.0,65,0.00,CLR,,0.00,WeatherDisplay:10.37,2013-01-21 15:24:00,
2013-01-21 10:29:00,14.0,4.1,30.15,SW,225,7.4,15.0,64,0.00,CLR,,0.00,WeatherDisplay:10.37,2013-01-21 15:29:00,
2013-01-21 10:34:00,13.6,4.7,30.15,SW,225,8.8,12.7,67,0.00,CLR,,0.00,WeatherDisplay:10.37,2013-01-21 15:34:00,
2013-01-21 10:39:00,13.6,5.0,30.15,SW,225,4.0,15.0,68,0.00,CLR,,0.00,WeatherDisplay:10.37,2013-01-21 15:39:00,
2013-01-21 10:44:00,14.0,4.1,30.15,SW,225,7.4,15.0,64,0.00,CLR,,0.00,WeatherDisplay:10.37,2013-01-21 15:44:00,
2013-01-21 10:49:00,14.2,2.5,30.15,SW,225,14.5,20.7,59,0.00,CLR,,0.00,WeatherDisplay:10.37,2013-01-21 15:49:00,
2013-01-21 10:54:00,14.2,1.3,30.15,SW,225,5.7,13.8,56,0.00,CLR,,0.00,WeatherDisplay:10.37,2013-01-21 15:54:00,
2013-01-21 10:59:00,14.4,0.7,30.15,SW,225,7.4,13.8,54,0.00,CLR,,0.00,WeatherDisplay:10.37,2013-01-21 15:59:00,
2013-01-21 11:04:00,14.5,0.5,30.15,SW,225,13.8,16.1,53,0.00,CLR,,0.00,WeatherDisplay:10.37,2013-01-21 16:04:00,
2013-01-21 11:10:00,14.4,-0.1,30.15,SW,225,8.1,19.6,52,0.00,CLR,,0.00,WeatherDisplay:10.37,2013-01-21 16:10:00,
2013-01-21 11:15:00,14.5,-1.2,30.15,SW,225,6.4,15.0,49,0.00,CLR,,0.00,WeatherDisplay:10.37,2013-01-21 16:15:00,
2013-01-21 11:20:00,14.9,-0.8,30.15,SW,225,8.8,11.5,49,0.00,CLR,,0.00,WeatherDisplay:10.37,2013-01-21 16:20:00,
2013-01-21 11:25:00,15.6,0.3,30.15,SW,225,6.4,19.6,50,0.00,CLR,,0.00,WeatherDisplay:10.37,2013-01-21 16:25:00,
2013-01-21 11:30:00,15.6,0.3,30.15,SW,225,4.7,12.7,50,0.00,CLR,,0.00,WeatherDisplay:10.37,2013-01-21 16:30:00,
2013-01-21 11:35:00,16.0,0.2,30.16,SW,225,12.1,23.0,49,0.00,CLR,,0.00,WeatherDisplay:10.37,2013-01-21 16:35:00,
2013-01-21 11:40:00,15.3,-0.1,30.16,SW,225,8.8,15.0,50,0.00,CLR,,0.00,WeatherDisplay:10.37,2013-01-21 16:40:00,
2013-01-21 11:45:00,15.3,1.6,30.16,SW,225,12.8,13.8,54,0.00,CLR,,0.00,WeatherDisplay:10.37,2013-01-21 16:45:00,
2013-01-21 11:50:00,15.3,1.2,30.16,SW,225,8.1,12.7,53,0.00,CLR,,0.00,WeatherDisplay:10.37,2013-01-21 16:50:00,
2013-01-21 11:55:00,16.0,1.4,30.16,SW,225,8.1,13.8,52,0.00,CLR,,0.00,WeatherDisplay:10.37,2013-01-21 16:55:00,
2013-01-21 12:00:00,15.3,2.0,30.16,SW,225,4.7,19.6,55,0.00,CLR,,0.00,WeatherDisplay:10.37,2013-01-21 17:00:00,
2013-01-21 12:05:00,14.5,3.9,30.15,SW,225,4.0,12.7,62,0.00,CLR,,0.00,WeatherDisplay:10.37,2013-01-21 17:05:00,
2013-01-21 12:10:00,14.5,4.6,30.15,SW,225,4.0,10.4,64,0.00,CLR,,0.00,WeatherDisplay:10.37,2013-01-21 17:10:00,
2013-01-21 12:15:00,14.7,5.1,30.15,SW,225,8.1,17.3,65,0.00,CLR,,0.00,WeatherDisplay:10.37,2013-01-21 17:15:00,
2013-01-21 12:20:00,14.2,4.6,30.15,SW,225,4.7,12.7,65,0.00,CLR,,0.00,WeatherDisplay:10.37,2013-01-21 17:20:00,
2013-01-21 12:25:00,14.0,4.4,30.15,SW,225,7.0,0.0,65,0.00,CLR,CLR,0.00,WeatherDisplay:10.37,2013-01-21 17:25:00,
2013-01-21 12:30:00,13.8,4.6,30.14,SW,225,5.0,0.0,66,0.00,CLR,CLR,0.00,WeatherDisplay:10.37,2013-01-21 17:30:00,
2013-01-21 12:35:00,14.1,4.4,30.14,SW,225,5.0,0.0,65,0.00,CLR,CLR,0.00,WeatherDisplay:10.37,2013-01-21 17:35:00,
2013-01-21 12:40:00,14.5,4.6,30.14,SW,225,5.7,13.8,64,0.00,CLR,,0.00,WeatherDisplay:10.37,2013-01-21 17:40:00,
2013-01-21 12:45:00,14.5,3.2,30.14,SW,225,9.0,0.0,60,0.00,CLR,CLR,0.00,WeatherDisplay:10.37,2013-01-21 17:45:00,
2013-01-21 12:50:00,14.4,1.9,30.14,SW,225,5.7,20.7,57,0.00,CLR,,0.00,WeatherDisplay:10.37,2013-01-21 17:50:00,
2013-01-21 12:55:00,14.7,2.2,30.14,SW,225,7.0,0.0,57,0.00,CLR,CLR,0.00,WeatherDisplay:10.37,2013-01-21 17:55:00,
2013-01-21 13:00:00,14.5,1.2,30.14,SW,225,13.0,0.0,55,0.00,CLR,CLR,0.00,WeatherDisplay:10.37,2013-01-21 18:00:00,
2013-01-21 13:05:00,13.8,2.1,30.14,SW,225,9.0,0.0,59,0.00,CLR,CLR,0.00,WeatherDisplay:10.37,2013-01-21 18:05:00,
2013-01-21 13:10:00,13.8,2.1,30.13,SW,225,10.0,0.0,59,0.00,CLR,CLR,0.00,WeatherDisplay:10.37,2013-01-21 18:10:00,
2013-01-21 13:15:00,14.2,1.4,30.13,SW,225,13.0,0.0,56,0.00,CLR,CLR,0.00,WeatherDisplay:10.37,2013-01-21 18:15:00,
2013-01-21 13:20:00,14.9,0.0,30.14,SW,225,15.4,28.8,51,0.00,CLR,,0.00,WeatherDisplay:10.37,2013-01-21 18:20:00,
2013-01-21 13:25:00,14.2,-1.1,30.14,SW,225,8.8,19.6,50,0.00,CLR,,0.00,WeatherDisplay:10.37,2013-01-21 18:25:00,
2013-01-21 13:30:00,12.9,0.9,30.14,SW,225,12.1,25.3,58,0.00,CLR,,0.00,WeatherDisplay:10.37,2013-01-21 18:30:00,
2013-01-21 13:35:00,12.6,2.7,30.14,SW,225,13.8,21.8,64,0.00,CLR,,0.00,WeatherDisplay:10.37,2013-01-21 18:35:00,
2013-01-21 13:40:00,12.6,3.3,30.14,SW,225,9.7,18.4,66,0.00,CLR,,0.00,WeatherDisplay:10.37,2013-01-21 18:40:00,
2013-01-21 13:45:00,12.4,3.2,30.14,SW,225,12.8,24.2,66,0.00,CLR,,0.00,WeatherDisplay:10.37,2013-01-21 18:45:00,
2013-01-21 13:50:00,12.4,2.5,30.14,SW,225,13.0,0.0,64,0.00,CLR,CLR,0.00,WeatherDisplay:10.37,2013-01-21 18:50:00,
2013-01-21 13:55:00,12.6,1.7,30.14,SW,225,12.0,0.0,61,0.00,CLR,CLR,0.00,WeatherDisplay:10.37,2013-01-21 18:55:00,
2013-01-21 14:00:00,13.1,1.4,30.14,SW,225,8.0,0.0,59,0.00,CLR,CLR,0.00,WeatherDisplay:10.37,2013-01-21 19:00:00,
2013-01-21 14:05:00,12.9,1.9,30.14,SW,225,8.0,0.0,61,0.00,CLR,CLR,0.00,WeatherDisplay:10.37,2013-01-21 19:05:00,
2013-01-21 14:10:00,12.1,2.6,30.14,SW,225,10.0,0.0,65,0.00,CLR,CLR,0.00,WeatherDisplay:10.37,2013-01-21 19:10:00,
2013-01-21 14:15:00,11.5,2.7,30.15,SW,225,9.0,0.0,67,0.00,CLR,CLR,0.00,WeatherDisplay:10.37,2013-01-21 19:15:00,
2013-01-21 14:20:00,11.3,2.1,30.15,SW,225,10.4,23.0,66,0.00,CLR,,0.00,WeatherDisplay:10.37,2013-01-21 19:20:00,
2013-01-21 14:25:00,11.8,2.0,30.15,SW,225,10.0,0.0,64,0.00,CLR,CLR,0.00,WeatherDisplay:10.37,2013-01-21 19:25:00,
2013-01-21 14:30:00,11.7,1.8,30.15,SW,225,5.7,25.3,64,0.00,CLR,,0.00,WeatherDisplay:10.37,2013-01-21 19:30:00,
2013-01-21 14:35:00,11.3,2.1,30.15,SW,225,13.8,20.7,66,0.00,CLR,,0.00,WeatherDisplay:10.37,2013-01-21 19:35:00,
2013-01-21 14:40:00,11.1,2.3,30.15,SW,225,12.0,0.0,67,0.00,CLR,CLR,0.00,WeatherDisplay:10.37,2013-01-21 19:40:00,
2013-01-21 14:45:00,11.7,3.1,30.16,SW,225,10.0,0.0,68,0.00,CLR,CLR,0.00,WeatherDisplay:10.37,2013-01-21 19:45:00,
2013-01-21 14:50:00,12.1,3.9,30.16,SW,225,14.0,0.0,69,0.00,CLR,CLR,0.00,WeatherDisplay:10.37,2013-01-21 19:50:00,
2013-01-21 14:55:00,11.8,2.6,30.16,SW,225,13.0,0.0,66,0.00,CLR,CLR,0.00,WeatherDisplay:10.37,2013-01-21 19:55:00,
2013-01-21 15:00:00,12.6,1.7,30.15,SW,225,6.0,0.0,61,0.00,CLR,CLR,0.00,WeatherDisplay:10.37,2013-01-21 20:00:00,
2013-01-21 15:05:00,12.7,0.4,30.15,SW,225,9.0,0.0,57,0.00,CLR,CLR,0.00,WeatherDisplay:10.37,2013-01-21 20:05:00,
2013-01-21 15:10:00,11.8,1.0,30.17,SW,225,14.5,18.4,61,0.00,CLR,,0.00,WeatherDisplay:10.37,2013-01-21 20:10:00,
2013-01-21 15:15:00,10.9,1.5,30.17,SW,225,7.4,17.3,65,0.00,CLR,,0.00,WeatherDisplay:10.37,2013-01-21 20:15:00,
2013-01-21 15:20:00,11.5,3.0,30.16,SW,225,8.8,13.8,68,0.00,CLR,,0.00,WeatherDisplay:10.37,2013-01-21 20:20:00,
2013-01-21 15:25:00,11.5,3.3,30.17,SW,225,12.8,23.0,69,0.00,CLR,,0.00,WeatherDisplay:10.37,2013-01-21 20:25:00,
2013-01-21 15:30:00,10.6,2.7,30.17,SW,225,7.4,13.8,70,0.00,CLR,,0.00,WeatherDisplay:10.37,2013-01-21 20:30:00,
2013-01-21 15:35:00,10.6,3.0,30.17,SW,225,5.0,0.0,71,0.00,CLR,CLR,0.00,WeatherDisplay:10.37,2013-01-21 20:35:00,
2013-01-21 15:40:00,10.9,3.7,30.17,SW,225,6.0,0.0,72,0.00,CLR,CLR,0.00,WeatherDisplay:10.37,2013-01-21 20:40:00,
2013-01-21 15:45:00,10.6,3.4,30.17,SW,225,8.0,0.0,72,0.00,CLR,CLR,0.00,WeatherDisplay:10.37,2013-01-21 20:45:00,
2013-01-21 15:50:00,10.4,3.2,30.17,SW,225,9.0,0.0,72,0.00,CLR,CLR,0.00,WeatherDisplay:10.37,2013-01-21 20:50:00,
2013-01-21 15:55:00,10.4,3.2,30.17,SW,225,8.0,0.0,72,0.00,CLR,CLR,0.00,WeatherDisplay:10.37,2013-01-21 20:55:00,
2013-01-21 16:00:00,10.6,3.3,30.17,SW,225,10.0,0.0,72,0.00,CLR,CLR,0.00,WeatherDisplay:10.37,2013-01-21 21:00:00,
2013-01-21 16:05:00,10.6,2.7,30.17,SW,225,9.0,0.0,70,0.00,CLR,CLR,0.00,WeatherDisplay:10.37,2013-01-21 21:05:00,
2013-01-21 16:10:00,10.6,1.8,30.17,SW,225,9.0,0.0,67,0.00,CLR,CLR,0.00,WeatherDisplay:10.37,2013-01-21 21:10:00,
2013-01-21 16:15:00,10.8,1.0,30.17,SW,225,8.1,18.4,64,0.00,CLR,,0.00,WeatherDisplay:10.37,2013-01-21 21:15:00,
2013-01-21 16:20:00,10.9,0.5,30.17,SW,225,9.7,12.7,62,0.00,CLR,,0.00,WeatherDisplay:10.37,2013-01-21 21:20:00,
2013-01-21 16:25:00,10.9,-0.2,30.18,SW,225,7.4,12.7,60,0.00,CLR,,0.00,WeatherDisplay:10.37,2013-01-21 21:25:00,
2013-01-21 16:30:00,10.8,0.6,30.18,SW,225,9.7,15.0,63,0.00,CLR,,0.00,WeatherDisplay:10.37,2013-01-21 21:30:00,
2013-01-21 16:35:00,10.8,1.3,30.18,SW,225,2.4,16.1,65,0.00,CLR,,0.00,WeatherDisplay:10.37,2013-01-21 21:35:00,
2013-01-21 16:40:00,10.9,1.8,30.18,SW,225,8.8,15.0,66,0.00,CLR,,0.00,WeatherDisplay:10.37,2013-01-21 21:40:00,
2013-01-21 16:45:00,10.9,1.1,30.18,SW,225,8.1,12.7,64,0.00,CLR,,0.00,WeatherDisplay:10.37,2013-01-21 21:45:00,
2013-01-21 16:50:00,10.9,-0.2,30.19,SW,225,7.4,15.0,60,0.00,CLR,,0.00,WeatherDisplay:10.37,2013-01-21 21:50:00,
2013-01-21 16:55:00,10.9,-0.2,30.18,SW,225,3.3,8.1,60,0.00,CLR,,0.00,WeatherDisplay:10.37,2013-01-21 21:55:00,
2013-01-21 17:00:00,10.9,-1.3,30.19,SW,225,10.4,17.8,57,0.00,CLR,,0.00,WeatherDisplay:10.37,2013-01-21 22:00:00,
2013-01-21 17:05:00,10.9,-2.5,30.19,SW,225,5.7,15.0,54,0.00,CLR,,0.00,WeatherDisplay:10.37,2013-01-21 22:05:00,
2013-01-21 17:10:00,10.9,-3.7,30.19,SW,225,8.1,15.0,51,0.00,CLR,,0.00,WeatherDisplay:10.37,2013-01-21 22:10:00,
2013-01-21 17:15:00,10.8,-5.1,30.19,SW,225,8.8,17.3,48,0.00,CLR,,0.00,WeatherDisplay:10.37,2013-01-21 22:15:00,
2013-01-21 17:20:00,10.8,-5.1,30.19,SW,225,8.8,17.3,48,0.00,CLR,,0.00,WeatherDisplay:10.37,2013-01-21 22:20:00,
2013-01-21 17:25:00,10.8,-4.3,30.19,SW,225,5.7,15.0,50,0.00,CLR,,0.00,WeatherDisplay:10.37,2013-01-21 22:25:00,
2013-01-21 17:30:00,10.6,-2.4,30.19,SW,225,6.4,15.0,55,0.00,CLR,,0.00,WeatherDisplay:10.37,2013-01-21 22:30:00,
2013-01-21 17:35:00,10.4,-1.1,30.19,SW,225,6.4,12.7,59,0.00,CLR,,0.00,WeatherDisplay:10.37,2013-01-21 22:35:00,
2013-01-21 17:40:00,10.4,1.0,30.19,SW,225,6.4,15.0,65,0.00,CLR,,0.00,WeatherDisplay:10.37,2013-01-21 22:40:00,
2013-01-21 17:45:00,10.4,1.6,30.19,SW,225,6.4,12.7,67,0.00,CLR,,0.00,WeatherDisplay:10.37,2013-01-21 22:45:00,
2013-01-21 17:50:00,10.4,1.9,30.19,SW,225,7.4,10.4,68,0.00,CLR,,0.00,WeatherDisplay:10.37,2013-01-21 22:50:00,
2013-01-21 17:55:00,10.6,2.4,30.19,SW,225,7.4,12.7,69,0.00,CLR,,0.00,WeatherDisplay:10.37,2013-01-21 22:55:00,
2013-01-21 18:00:00,10.4,2.2,30.19,SW,225,8.8,18.4,69,0.00,CLR,,0.00,WeatherDisplay:10.37,2013-01-21 23:00:00,
2013-01-21 18:05:00,10.0,0.9,30.19,SW,225,8.8,12.7,66,0.00,CLR,,0.00,WeatherDisplay:10.37,2013-01-21 23:05:00,
2013-01-21 18:10:00,10.2,1.1,30.18,SW,225,10.4,17.3,66,0.00,CLR,,0.00,WeatherDisplay:10.37,2013-01-21 23:10:00,
2013-01-21 18:15:00,10.0,0.9,30.18,SW,225,7.4,13.8,66,0.00,CLR,,0.00,WeatherDisplay:10.37,2013-01-21 23:15:00,
2013-01-21 18:20:00,10.2,1.4,30.18,SW,225,8.8,17.3,67,0.00,CLR,,0.00,WeatherDisplay:10.37,2013-01-21 23:20:00,
2013-01-21 18:25:00,10.2,1.4,30.18,SW,225,8.1,18.4,67,0.00,CLR,,0.00,WeatherDisplay:10.37,2013-01-21 23:25:00,
2013-01-21 18:30:00,10.4,2.9,30.17,SW,225,13.8,20.7,71,0.00,CLR,,0.00,WeatherDisplay:10.37,2013-01-21 23:30:00,
2013-01-21 18:35:00,10.4,2.2,30.17,SW,225,6.4,13.8,69,0.00,CLR,,0.00,WeatherDisplay:10.37,2013-01-21 23:35:00,
2013-01-21 18:40:00,10.4,1.9,30.17,SW,225,8.8,12.7,68,0.00,CLR,,0.00,WeatherDisplay:10.37,2013-01-21 23:40:00,
2013-01-21 18:45:00,10.4,1.9,30.17,SW,225,12.1,23.0,68,0.00,CLR,,0.00,WeatherDisplay:10.37,2013-01-21 23:45:00,
2013-01-21 18:50:00,10.2,1.1,30.17,SW,225,9.7,17.3,66,0.00,CLR,,0.00,WeatherDisplay:10.37,2013-01-21 23:50:00,
2013-01-21 18:55:00,10.2,1.1,30.17,SW,225,7.4,19.6,66,0.00,CLR,,0.00,WeatherDisplay:10.37,2013-01-21 23:55:00,
2013-01-21 19:00:00,10.2,0.8,30.16,SW,225,7.4,17.3,65,0.00,CLR,,0.00,WeatherDisplay:10.37,2013-01-22 00:00:00,
2013-01-21 19:05:00,10.4,1.6,30.16,SW,225,5.7,12.7,67,0.00,CLR,,0.00,WeatherDisplay:10.37,2013-01-22 00:05:00,
2013-01-21 19:10:00,10.6,1.5,30.16,SW,225,5.7,17.3,66,0.00,CLR,,0.00,WeatherDisplay:10.37,2013-01-22 00:10:00,
2013-01-21 19:15:00,10.6,1.1,30.15,SW,225,10.4,21.9,65,0.00,CLR,,0.00,WeatherDisplay:10.37,2013-01-22 00:15:00,
2013-01-21 19:20:00,10.8,-0.1,30.15,SW,225,11.4,16.1,61,0.00,CLR,,0.00,WeatherDisplay:10.37,2013-01-22 00:20:00,
2013-01-21 19:25:00,10.6,-0.2,30.15,SW,225,5.7,20.7,61,0.00,CLR,,0.00,WeatherDisplay:10.37,2013-01-22 00:25:00,
2013-01-21 19:30:00,10.6,0.5,30.15,SW,225,5.7,8.1,63,0.00,CLR,,0.00,WeatherDisplay:10.37,2013-01-22 00:30:00,
2013-01-21 19:35:00,10.6,1.1,30.15,SW,225,7.4,9.2,65,0.00,CLR,,0.00,WeatherDisplay:10.37,2013-01-22 00:35:00,
2013-01-21 19:40:00,10.8,1.0,30.15,SW,225,8.8,13.8,64,0.00,CLR,,0.00,WeatherDisplay:10.37,2013-01-22 00:40:00,
2013-01-21 19:45:00,10.2,-0.2,30.15,SW,225,10.4,19.5,62,0.00,CLR,,0.00,WeatherDisplay:10.37,2013-01-22 00:45:00,
2013-01-21 19:50:00,10.0,-0.1,30.14,SW,225,8.1,23.0,63,0.00,CLR,,0.00,WeatherDisplay:10.37,2013-01-22 00:50:00,
2013-01-21 19:55:00,10.2,-0.2,30.15,SW,225,10.4,20.7,62,0.00,CLR,,0.00,WeatherDisplay:10.37,2013-01-22 00:55:00,
2013-01-21 20:00:00,10.4,0.3,30.15,SW,225,7.4,19.6,63,0.00,CLR,,0.00,WeatherDisplay:10.37,2013-01-22 01:00:00,
2013-01-21 20:05:00,10.4,-0.4,30.15,SW,225,10.4,12.7,61,0.00,CLR,,0.00,WeatherDisplay:10.37,2013-01-22 01:05:00,
2013-01-21 20:10:00,10.4,-0.1,30.16,SW,225,5.7,12.7,62,0.00,CLR,,0.00,WeatherDisplay:10.37,2013-01-22 01:10:00,
2013-01-21 20:15:00,10.4,-0.1,30.16,SW,225,8.8,16.1,62,0.00,CLR,,0.00,WeatherDisplay:10.37,2013-01-22 01:15:00,
2013-01-21 20:20:00,10.4,-0.8,30.16,SW,225,6.4,12.7,60,0.00,CLR,,0.00,WeatherDisplay:10.37,2013-01-22 01:20:00,
2013-01-21 20:25:00,10.6,-0.9,30.16,SW,225,8.1,13.8,59,0.00,CLR,,0.00,WeatherDisplay:10.37,2013-01-22 01:25:00,
2013-01-21 20:30:00,10.4,-0.8,30.15,SW,225,12.8,18.4,60,0.00,CLR,,0.00,WeatherDisplay:10.37,2013-01-22 01:30:00,
2013-01-21 20:35:00,10.4,-1.1,30.15,SW,225,11.4,17.3,59,0.00,CLR,,0.00,WeatherDisplay:10.37,2013-01-22 01:35:00,
2013-01-21 20:40:00,10.2,-1.3,30.15,SW,225,5.7,23.0,59,0.00,CLR,,0.00,WeatherDisplay:10.37,2013-01-22 01:40:00,
2013-01-21 20:45:00,9.9,-0.9,30.14,SW,225,8.1,16.1,61,0.00,CLR,,0.00,WeatherDisplay:10.37,2013-01-22 01:45:00,
2013-01-21 20:50:00,10.0,-0.4,30.14,SW,225,7.4,11.5,62,0.00,CLR,,0.00,WeatherDisplay:10.37,2013-01-22 01:50:00,
2013-01-21 20:55:00,10.2,-0.2,30.14,SW,225,16.1,17.3,62,0.00,CLR,,0.00,WeatherDisplay:10.37,2013-01-22 01:55:00,
2013-01-21 21:00:00,10.2,-0.6,30.14,SW,225,10.4,19.6,61,0.00,CLR,,0.00,WeatherDisplay:10.37,2013-01-22 02:00:00,
2013-01-21 21:05:00,10.0,-0.4,30.13,SW,225,5.7,15.0,62,0.00,CLR,,0.00,WeatherDisplay:10.37,2013-01-22 02:05:00,
2013-01-21 21:10:00,10.0,-0.7,30.13,SW,225,10.4,15.0,61,0.00,CLR,,0.00,WeatherDisplay:10.37,2013-01-22 02:10:00,
2013-01-21 21:15:00,10.2,-2.0,30.13,SW,225,4.7,17.3,57,0.00,CLR,,0.00,WeatherDisplay:10.37,2013-01-22 02:15:00,
2013-01-21 21:20:00,10.4,-0.4,30.12,SW,225,4.7,15.0,61,0.00,CLR,,0.00,WeatherDisplay:10.37,2013-01-22 02:20:00,
2013-01-21 21:25:00,10.2,-1.3,30.13,SW,225,10.4,17.3,59,0.00,CLR,,0.00,WeatherDisplay:10.37,2013-01-22 02:25:00,
2013-01-21 21:30:00,10.0,-0.4,30.13,SW,225,5.7,15.0,62,0.00,CLR,,0.00,WeatherDisplay:10.37,2013-01-22 02:30:00,
2013-01-21 21:35:00,9.9,-0.2,30.13,West,270,7.4,20.7,63,0.00,CLR,,0.00,WeatherDisplay:10.37,2013-01-22 02:35:00,
2013-01-21 21:40:00,9.7,-0.1,30.13,SW,225,13.8,23.0,64,0.00,CLR,,0.00,WeatherDisplay:10.37,2013-01-22 02:40:00,
2013-01-21 21:45:00,9.7,0.3,30.13,SW,225,10.4,13.8,65,0.00,CLR,,0.00,WeatherDisplay:10.37,2013-01-22 02:45:00,
2013-01-21 21:50:00,9.7,0.6,30.13,SW,225,10.4,17.3,66,0.00,CLR,,0.00,WeatherDisplay:10.37,2013-01-22 02:50:00,
2013-01-21 21:55:00,9.7,0.3,30.13,SW,225,9.7,25.3,65,0.00,CLR,,0.00,WeatherDisplay:10.37,2013-01-22 02:55:00,
2013-01-21 22:00:00,9.5,-0.6,30.13,SW,225,19.5,19.6,63,0.00,CLR,,0.00,WeatherDisplay:10.37,2013-01-22 03:00:00,
2013-01-21 22:05:00,9.7,-1.1,30.13,SW,225,9.7,20.7,61,0.00,CLR,,0.00,WeatherDisplay:10.37,2013-01-22 03:05:00,
2013-01-21 22:10:00,10.0,-1.8,30.13,SW,225,6.4,9.2,58,0.00,CLR,,0.00,WeatherDisplay:10.37,2013-01-22 03:10:00,
2013-01-21 22:15:00,10.0,-2.6,30.13,SW,225,7.4,24.2,56,0.00,CLR,,0.00,WeatherDisplay:10.37,2013-01-22 03:15:00,
2013-01-21 22:20:00,10.0,-3.3,30.14,SW,225,11.4,18.4,54,0.00,CLR,,0.00,WeatherDisplay:10.37,2013-01-22 03:20:00,
2013-01-21 22:25:00,9.9,-3.5,30.14,SW,225,8.8,13.8,54,0.00,CLR,,0.00,WeatherDisplay:10.37,2013-01-22 03:25:00,
2013-01-21 22:30:00,9.9,-4.3,30.15,SW,225,5.7,15.0,52,0.00,CLR,,0.00,WeatherDisplay:10.37,2013-01-22 03:30:00,
2013-01-21 22:35:00,9.9,-3.5,30.16,SW,225,8.8,17.3,54,0.00,CLR,,0.00,WeatherDisplay:10.37,2013-01-22 03:35:00,
2013-01-21 22:40:00,9.7,-2.5,30.16,SW,225,4.7,17.3,57,0.00,CLR,,0.00,WeatherDisplay:10.37,2013-01-22 03:40:00,
2013-01-21 22:45:00,9.5,-1.3,30.16,SW,225,8.1,13.8,61,0.00,CLR,,0.00,WeatherDisplay:10.37,2013-01-22 03:45:00,
2013-01-21 22:50:00,9.3,-1.1,30.17,NW,315,4.7,20.7,62,0.00,CLR,,0.00,WeatherDisplay:10.37,2013-01-22 03:50:00,
2013-01-21 22:55:00,9.1,-0.6,30.18,North,0,7.7,17.3,64,0.00,CLR,,0.00,WeatherDisplay:10.37,2013-01-22 03:55:00,
2013-01-21 23:00:00,9.1,-0.3,30.18,NE,45,6.8,17.3,65,0.00,CLR,,0.00,WeatherDisplay:10.37,2013-01-22 04:00:00,
2013-01-21 23:05:00,9.1,-0.3,30.19,NE,45,6.8,16.1,65,0.00,CLR,,0.00,WeatherDisplay:10.37,2013-01-22 04:05:00,
2013-01-21 23:10:00,9.0,0.2,30.19,NE,45,10.5,21.9,67,0.00,CLR,,0.00,WeatherDisplay:10.37,2013-01-22 04:10:00,
2013-01-21 23:15:00,9.0,0.5,30.20,West,270,7.4,17.3,68,0.00,CLR,,0.00,WeatherDisplay:10.37,2013-01-22 04:15:00,
2013-01-21 23:20:00,8.8,0.4,30.20,NW,315,7.4,13.8,68,0.00,CLR,,0.00,WeatherDisplay:10.37,2013-01-22 04:20:00,
2013-01-21 23:25:00,9.0,0.9,30.20,NNW,338,6.8,12.7,69,0.00,CLR,,0.00,WeatherDisplay:10.37,2013-01-22 04:25:00,
2013-01-21 23:30:00,9.0,0.9,30.21,North,0,10.5,17.3,69,0.00,CLR,,0.00,WeatherDisplay:10.37,2013-01-22 04:30:00,
2013-01-21 23:35:00,8.8,0.7,30.21,NW,315,6.4,13.8,69,0.00,CLR,,0.00,WeatherDisplay:10.37,2013-01-22 04:35:00,
2013-01-21 23:40:00,8.6,0.5,30.22,West,270,7.4,24.2,69,0.00,CLR,,0.00,WeatherDisplay:10.37,2013-01-22 04:40:00,
2013-01-21 23:46:00,8.6,0.5,30.22,NW,315,11.4,15.0,69,0.00,CLR,,0.00,WeatherDisplay:10.37,2013-01-22 04:46:00,
2013-01-21 23:51:00,8.4,0.6,30.22,NE,45,10.5,17.3,70,0.00,CLR,,0.00,WeatherDisplay:10.37,2013-01-22 04:51:00,
2013-01-21 23:56:00,8.2,0.5,30.23,NE,45,9.7,11.5,70,0.00,CLR,,0.00,WeatherDisplay:10.37,2013-01-22 04:56:00,